createdAt,value
2018-09-18T00:01:49.044Z,19.64
2018-09-18T00:04:17.484Z,19.61
2018-09-18T00:06:45.976Z,19.59
2018-09-18T00:09:14.389Z,19.59
2018-09-18T00:11:43.181Z,19.56
2018-09-18T00:14:12.260Z,19.54
2018-09-18T00:16:40.744Z,19.53
2018-09-18T00:19:09.485Z,19.51
2018-09-18T00:21:37.880Z,19.49
2018-09-18T00:24:06.798Z,19.47
2018-09-18T00:26:35.263Z,19.44
2018-09-18T00:29:03.763Z,19.43
2018-09-18T00:31:32.171Z,19.42
2018-09-18T00:34:00.734Z,19.40
2018-09-18T00:36:29.159Z,19.39
2018-09-18T00:38:58.144Z,19.37
2018-09-18T00:41:27.286Z,19.36
2018-09-18T00:43:55.730Z,19.33
2018-09-18T00:46:24.276Z,19.32
2018-09-18T00:48:52.858Z,19.30
2018-09-18T00:51:21.450Z,19.28
2018-09-18T00:53:50.581Z,19.25
2018-09-18T00:56:19.728Z,19.23
2018-09-18T00:58:48.278Z,19.21
2018-09-18T01:01:16.716Z,19.19
2018-09-18T01:03:45.141Z,19.16
2018-09-18T01:06:13.603Z,19.14
2018-09-18T01:08:42.200Z,19.13
2018-09-18T01:11:10.928Z,19.09
2018-09-18T01:13:39.498Z,19.08
2018-09-18T01:16:08.104Z,19.07
2018-09-18T01:18:40.259Z,19.04
2018-09-18T01:21:10.153Z,19.02
2018-09-18T01:23:38.751Z,19.01
2018-09-18T01:26:07.332Z,18.98
2018-09-18T01:28:36.791Z,18.98
2018-09-18T01:31:05.680Z,18.96
2018-09-18T01:33:34.471Z,18.92
2018-09-18T01:36:03.040Z,18.90
2018-09-18T01:38:31.969Z,18.89
2018-09-18T01:41:00.674Z,18.86
2018-09-18T01:43:29.677Z,18.83
2018-09-18T01:45:58.172Z,18.83
2018-09-18T01:48:26.724Z,18.80
2018-09-18T01:50:55.913Z,18.76
2018-09-18T01:53:24.376Z,18.73
2018-09-18T01:55:52.793Z,18.69
2018-09-18T01:58:21.292Z,18.67
2018-09-18T02:00:50.120Z,18.66
2018-09-18T02:03:18.777Z,18.64
2018-09-18T02:05:47.366Z,18.61
2018-09-18T02:08:15.966Z,18.59
2018-09-18T02:10:44.406Z,18.57
2018-09-18T02:13:12.964Z,18.54
2018-09-18T02:15:41.413Z,18.54
2018-09-18T02:18:09.856Z,18.52
2018-09-18T02:20:38.411Z,18.52
2018-09-18T02:23:07.447Z,18.51
2018-09-18T02:25:35.879Z,18.49
2018-09-18T02:28:04.361Z,18.47
2018-09-18T02:30:32.820Z,18.45
2018-09-18T02:33:01.454Z,18.42
2018-09-18T02:35:30.111Z,18.38
2018-09-18T02:37:58.501Z,18.36
2018-09-18T02:40:27.045Z,18.33
2018-09-18T02:42:56.078Z,18.32
2018-09-18T02:45:24.573Z,18.30
2018-09-18T02:47:53.008Z,18.27
2018-09-18T02:50:21.550Z,18.26
2018-09-18T02:52:49.940Z,18.24
2018-09-18T02:55:18.495Z,18.24
2018-09-18T02:57:47.043Z,18.23
2018-09-18T03:00:15.773Z,18.23
2018-09-18T03:02:44.187Z,18.20
2018-09-18T03:05:12.778Z,18.18
2018-09-18T03:07:41.308Z,18.17
2018-09-18T03:10:09.828Z,18.17
2018-09-18T03:12:38.261Z,18.15
2018-09-18T03:15:09.902Z,18.14
2018-09-18T03:17:38.464Z,18.12
2018-09-18T03:20:06.920Z,18.11
2018-09-18T03:22:35.408Z,18.11
2018-09-18T03:25:04.287Z,18.09
2018-09-18T03:27:33.021Z,18.08
2018-09-18T03:30:01.414Z,18.07
2018-09-18T03:32:30.025Z,18.06
2018-09-18T03:34:58.542Z,18.05
2018-09-18T03:37:27.189Z,18.04
2018-09-18T03:39:55.604Z,18.03
2018-09-18T03:42:24.002Z,18.03
2018-09-18T03:44:52.551Z,18.01
2018-09-18T03:47:21.763Z,18.00
2018-09-18T03:49:52.290Z,17.99
2018-09-18T03:52:20.714Z,17.96
2018-09-18T03:54:49.355Z,17.95
2018-09-18T03:57:18.300Z,17.94
2018-09-18T03:59:46.915Z,17.94
2018-09-18T04:02:16.050Z,17.91
2018-09-18T04:04:44.717Z,17.90
2018-09-18T04:07:13.267Z,17.89
2018-09-18T04:09:41.752Z,17.89
2018-09-18T04:12:10.195Z,17.87
2018-09-18T04:14:38.630Z,17.85
2018-09-18T04:17:07.204Z,17.85
2018-09-18T04:19:35.772Z,17.84
2018-09-18T04:22:04.222Z,17.82
2018-09-18T04:24:32.649Z,17.81
2018-09-18T04:27:01.129Z,17.81
2018-09-18T04:29:29.568Z,17.83
2018-09-18T04:31:57.985Z,17.82
2018-09-18T04:34:26.562Z,17.82
2018-09-18T04:36:55.045Z,17.81
2018-09-18T04:39:23.636Z,17.82
2018-09-18T04:41:52.121Z,17.81
2018-09-18T04:44:20.585Z,17.81
2018-09-18T04:46:49.576Z,17.78
2018-09-18T04:49:18.071Z,17.77
2018-09-18T04:51:46.592Z,17.79
2018-09-18T04:54:21.737Z,17.81
2018-09-18T04:56:50.308Z,17.82
2018-09-18T04:59:18.830Z,17.84
2018-09-18T05:01:47.292Z,17.84
2018-09-18T05:04:15.986Z,17.86
2018-09-18T05:06:44.436Z,17.86
2018-09-18T05:09:13.867Z,17.85
2018-09-18T05:11:42.310Z,17.85
2018-09-18T05:14:10.744Z,17.85
2018-09-18T05:16:39.153Z,17.84
2018-09-18T05:19:08.799Z,17.86
2018-09-18T05:21:37.436Z,17.86
2018-09-18T05:24:05.837Z,17.85
2018-09-18T05:26:35.412Z,17.86
2018-09-18T05:29:03.925Z,17.86
2018-09-18T05:31:32.524Z,17.87
2018-09-18T05:34:02.096Z,17.90
2018-09-18T05:36:30.825Z,17.92
2018-09-18T05:39:14.041Z,17.93
2018-09-18T05:41:42.565Z,17.95
2018-09-18T05:44:11.172Z,17.96
2018-09-18T05:46:39.604Z,17.99
2018-09-18T05:49:08.088Z,18.01
2018-09-18T05:51:36.704Z,18.05
2018-09-18T05:54:05.273Z,18.09
2018-09-18T05:56:33.843Z,18.12
2018-09-18T05:59:02.409Z,18.15
2018-09-18T06:01:30.968Z,18.19
2018-09-18T06:03:59.453Z,18.23
2018-09-18T06:06:28.221Z,18.27
2018-09-18T06:08:56.722Z,18.31
2018-09-18T06:11:25.460Z,18.37
2018-09-18T06:13:54.056Z,18.42
2018-09-18T06:16:22.769Z,18.47
2018-09-18T06:18:51.398Z,18.52
2018-09-18T06:21:19.868Z,18.54
2018-09-18T06:23:48.437Z,18.63
2018-09-18T06:26:17.422Z,18.68
2018-09-18T06:28:46.214Z,18.73
2018-09-18T06:31:14.800Z,18.78
2018-09-18T06:33:43.428Z,18.84
2018-09-18T06:36:11.981Z,18.88
2018-09-18T06:38:40.423Z,18.92
2018-09-18T06:41:09.097Z,18.98
2018-09-18T06:43:37.712Z,19.06
2018-09-18T06:46:06.296Z,19.11
2018-09-18T06:48:35.949Z,19.17
2018-09-18T06:51:05.013Z,19.23
2018-09-18T06:53:33.572Z,19.30
2018-09-18T06:56:03.655Z,19.35
2018-09-18T06:58:32.251Z,19.42
2018-09-18T07:01:00.783Z,19.48
2018-09-18T07:03:29.468Z,19.54
2018-09-18T07:05:58.080Z,19.62
2018-09-18T07:08:26.613Z,19.68
2018-09-18T07:10:55.137Z,19.75
2018-09-18T07:13:23.580Z,19.82
2018-09-18T07:15:52.120Z,19.89
2018-09-18T07:18:20.541Z,19.98
2018-09-18T07:20:49.117Z,20.05
2018-09-18T07:23:17.766Z,20.13
2018-09-18T07:25:46.233Z,20.22
2018-09-18T07:28:15.835Z,20.30
2018-09-18T07:30:44.965Z,20.38
2018-09-18T07:33:14.052Z,20.47
2018-09-18T07:35:42.508Z,20.55
2018-09-18T07:38:10.952Z,20.65
2018-09-18T07:40:39.609Z,20.74
2018-09-18T07:43:08.050Z,20.83
2018-09-18T07:45:36.676Z,20.95
2018-09-18T07:48:05.244Z,21.04
2018-09-18T07:50:33.845Z,21.15
2018-09-18T07:53:02.761Z,21.28
2018-09-18T07:55:31.198Z,21.43
2018-09-18T07:57:59.777Z,21.53
2018-09-18T08:00:28.446Z,21.62
2018-09-18T08:02:56.998Z,21.71
2018-09-18T08:05:26.301Z,21.79
2018-09-18T08:07:54.845Z,21.90
2018-09-18T08:10:24.844Z,21.97
2018-09-18T08:12:53.408Z,22.11
2018-09-18T08:15:21.816Z,22.21
2018-09-18T08:17:50.455Z,22.28
2018-09-18T08:20:19.018Z,22.39
2018-09-18T08:22:47.597Z,22.47
2018-09-18T08:25:16.824Z,22.56
2018-09-18T08:27:45.295Z,22.68
2018-09-18T08:30:13.829Z,22.78
2018-09-18T08:32:42.604Z,22.86
2018-09-18T08:35:10.930Z,22.94
2018-09-18T08:37:39.407Z,23.02
2018-09-18T08:40:08.195Z,23.11
2018-09-18T08:42:36.967Z,23.20
2018-09-18T08:45:05.828Z,23.33
2018-09-18T08:47:34.971Z,23.43
2018-09-18T08:50:03.531Z,23.52
2018-09-18T08:52:32.264Z,23.65
2018-09-18T08:55:00.712Z,23.76
2018-09-18T08:57:29.298Z,23.90
2018-09-18T08:59:57.823Z,24.02
2018-09-18T09:02:26.418Z,24.09
2018-09-18T09:04:54.945Z,24.25
2018-09-18T09:07:23.605Z,24.45
2018-09-18T09:09:52.085Z,24.50
2018-09-18T09:12:21.210Z,24.61
2018-09-18T09:14:49.732Z,24.73
2018-09-18T09:17:18.344Z,24.82
2018-09-18T09:19:46.954Z,24.93
2018-09-18T09:22:16.064Z,25.05
2018-09-18T09:24:44.484Z,25.18
2018-09-18T09:27:12.981Z,25.32
2018-09-18T09:29:41.677Z,25.42
2018-09-18T09:32:13.856Z,25.58
2018-09-18T09:34:42.801Z,25.81
2018-09-18T09:37:11.414Z,25.98
2018-09-18T09:39:39.874Z,26.11
2018-09-18T09:42:08.526Z,26.21
2018-09-18T09:44:37.077Z,26.22
2018-09-18T09:47:05.717Z,26.33
2018-09-18T09:49:34.432Z,26.48
2018-09-18T09:52:02.926Z,26.54
2018-09-18T09:54:31.383Z,26.65
2018-09-18T09:57:00.072Z,26.76
2018-09-18T09:59:29.547Z,26.88
2018-09-18T10:02:03.213Z,26.99
2018-09-18T10:04:32.029Z,27.05
2018-09-18T10:07:00.846Z,27.15
2018-09-18T10:09:29.472Z,27.24
2018-09-18T10:11:57.987Z,27.39
2018-09-18T10:14:26.549Z,27.49
2018-09-18T10:16:55.249Z,27.55
2018-09-18T10:19:23.675Z,27.66
2018-09-18T10:21:52.159Z,27.80
2018-09-18T10:24:20.766Z,27.92
2018-09-18T10:26:49.303Z,28.02
2018-09-18T10:29:17.713Z,28.09
2018-09-18T10:31:46.184Z,28.21
